Search for the current weather situation

Metar

Metar
TNCA 240900Z 10016KT 9999 FEW017 26/22 Q1013 NOSIG
Decoded Metar

TAF

TAF
TNCA 240900Z 10016KT 9999 FEW017 26/22 Q1013 NOSIG
Decoded TAF
Top